Time;durP1;ratioP1;P1;durP2;ratioP2;P2;SDS_P1;SDS_P2;PMS_P1;PMS_P2;Temp;Humidity;BMP_temperature;BMP_pressure;BME280_temperature;BME280_humidity;BME280_pressure;Samples;Min_cycle;Max_cycle;Signal;HPM_P1;HPM_P2
2023/06/09 00:00:31;;;;;;;;;;;;;;;22.03;29.51;97746.28;4980238;28;1985;-75
2023/06/09 00:02:57;;;;;;;;;;;;;;;22.09;29.46;97753.75;4996708;28;1208;-76
2023/06/09 00:05:23;;;;;;;;;;;;;;;21.62;30.47;97750.81;4980601;28;987;-76
2023/06/09 00:07:52;;;;;;;;;;;;;;;21.63;30.66;97755.22;4996597;28;969;-76
2023/06/09 00:10:18;;;;;;;;;;;;;;;21.90;30.11;97740.63;4980667;28;912;-76
2023/06/09 00:12:45;;;;;;;;;;;;;;;22.11;29.87;97736.31;4980399;28;924;-76
2023/06/09 00:15:10;;;;;;;;;;;;;;;22.09;29.75;97736.75;4964345;28;1434;-75
2023/06/09 00:17:39;;;;;;;;;;;;;;;21.92;29.98;97740.19;4996516;28;956;-75
2023/06/09 00:20:08;;;;;;;;;;;;;;;22.05;29.97;97738.13;4981146;28;991;-75
2023/06/09 00:22:34;;;;;;;;;;;;;;;22.02;30.10;97727.69;4980355;28;1985;-76
2023/06/09 00:25:00;;;;;;;;;;;;;;;21.88;30.18;97722.50;4980119;28;950;-76
2023/06/09 00:27:26;;;;;;;;;;;;;;;21.65;30.35;97737.78;4980554;28;1206;-76
2023/06/09 00:29:52;;;;;;;;;;;;;;;21.75;30.38;97720.44;4980098;28;922;-76
2023/06/09 00:32:17;;;;;;;;;;;;;;;21.71;30.57;97725.44;4996156;28;1066;-76
2023/06/09 00:34:43;;;;;;;;;;;;;;;21.91;30.01;97718.75;4980015;28;884;-76
2023/06/09 00:37:09;;;;;;;;;;;;;;;22.03;29.93;97718.75;4983869;28;924;-76
2023/06/09 00:39:35;;;;;;;;;;;;;;;22.11;30.00;97725.00;5000553;28;1584;-76
2023/06/09 00:42:00;;;;;;;;;;;;;;;22.14;29.89;97724.09;5000709;28;1924;-76
2023/06/09 00:44:26;;;;;;;;;;;;;;;21.95;30.13;97722.25;5000297;28;963;-75
2023/06/09 00:46:51;;;;;;;;;;;;;;;21.96;30.08;97732.34;5000291;28;1156;-76
2023/06/09 00:49:17;;;;;;;;;;;;;;;22.06;29.96;97722.69;5017687;28;893;-76
2023/06/09 00:51:43;;;;;;;;;;;;;;;21.91;30.28;97724.41;4999865;28;961;-75
2023/06/09 00:54:08;;;;;;;;;;;;;;;21.83;30.47;97715.38;5000075;28;947;-76
2023/06/09 00:56:34;;;;;;;;;;;;;;;21.92;30.30;97717.53;5000111;28;1108;-76
2023/06/09 00:59:01;;;;;;;;;;;;;;;22.06;29.83;97717.81;5000078;28;979;-76
2023/06/09 01:01:28;;;;;;;;;;;;;;;22.10;29.88;97717.72;4959966;28;1981;-76
2023/06/09 01:03:54;;;;;;;;;;;;;;;22.05;30.01;97715.44;4959509;28;1331;-75
2023/06/09 01:06:32;;;;;;;;;;;;;;;22.19;29.81;97720.69;4960264;28;1124;-75
2023/06/09 01:09:18;;;;;;;;;;;;;;;22.11;29.64;97716.50;4943805;28;1068;-75
2023/06/09 01:11:48;;;;;;;;;;;;;;;21.93;30.14;97708.56;4940527;29;1307;-76
2023/06/09 01:14:17;;;;;;;;;;;;;;;21.91;30.36;97710.25;4925151;28;1003;-76
2023/06/09 01:16:53;;;;;;;;;;;;;;;21.92;30.21;97711.84;4940914;28;954;-76
2023/06/09 01:19:45;;;;;;;;;;;;;;;21.81;30.28;97713.00;4940824;28;1087;-75
2023/06/09 01:22:20;;;;;;;;;;;;;;;21.70;30.76;97695.53;4880650;29;1907;-75
2023/06/09 01:25:04;;;;;;;;;;;;;;;21.79;30.48;97715.47;4880624;29;1012;-76
2023/06/09 01:27:30;;;;;;;;;;;;;;;22.13;29.88;97710.38;4865506;29;1142;-75
2023/06/09 01:29:56;;;;;;;;;;;;;;;22.04;29.98;97708.22;4865056;29;1182;-76
2023/06/09 01:32:23;;;;;;;;;;;;;;;22.05;29.76;97709.78;4883284;29;932;-76
2023/06/09 01:34:49;;;;;;;;;;;;;;;22.22;29.64;97702.75;4902382;29;1052;-75
2023/06/09 01:37:14;;;;;;;;;;;;;;;22.18;29.80;97704.94;4918405;29;1300;-76
2023/06/09 01:39:40;;;;;;;;;;;;;;;22.10;30.14;97700.72;4918305;29;1035;-76
2023/06/09 01:42:06;;;;;;;;;;;;;;;22.11;30.07;97702.31;4923040;29;1987;-77
2023/06/09 01:44:35;;;;;;;;;;;;;;;22.30;29.63;97706.16;4921333;29;1201;-75
2023/06/09 01:47:01;;;;;;;;;;;;;;;22.15;29.94;97691.66;4937167;29;1145;-76
2023/06/09 01:49:29;;;;;;;;;;;;;;;22.31;29.80;97690.72;4921030;29;1518;-76
2023/06/09 01:51:57;;;;;;;;;;;;;;;22.10;30.03;97686.53;4937227;29;1024;-76
2023/06/09 01:54:37;;;;;;;;;;;;;;;21.76;30.77;97688.06;4936697;29;979;-76
2023/06/09 01:57:18;;;;;;;;;;;;;;;22.15;30.01;97686.00;4937251;29;1054;-76
2023/06/09 01:59:48;;;;;;;;;;;;;;;22.15;29.85;97686.00;4987126;28;1088;-76
2023/06/09 02:02:14;;;;;;;;;;;;;;;21.83;30.30;97693.50;4981994;28;1907;-76
2023/06/09 02:04:41;;;;;;;;;;;;;;;21.99;30.33;97688.94;4985702;28;1170;-76
2023/06/09 02:07:08;;;;;;;;;;;;;;;21.88;30.39;97688.50;4986207;28;1231;-76
2023/06/09 02:09:33;;;;;;;;;;;;;;;21.84;30.66;97686.56;5002426;28;950;-75
2023/06/09 02:12:00;;;;;;;;;;;;;;;21.76;30.75;97676.75;4985971;28;1179;-76
2023/06/09 02:14:32;;;;;;;;;;;;;;;22.10;30.28;97686.53;4985982;28;1110;-76
2023/06/09 02:16:58;;;;;;;;;;;;;;;22.01;30.38;97687.22;5002122;28;1239;-76
2023/06/09 02:19:24;;;;;;;;;;;;;;;22.04;29.97;97686.34;4985709;28;1199;-76
2023/06/09 02:21:49;;;;;;;;;;;;;;;22.03;30.07;97690.41;5002146;28;1906;-76
2023/06/09 02:24:15;;;;;;;;;;;;;;;21.87;30.34;97686.94;5001862;28;1027;-76
2023/06/09 02:26:41;;;;;;;;;;;;;;;21.91;30.35;97684.75;5018682;28;998;-76
2023/06/09 02:29:06;;;;;;;;;;;;;;;22.07;29.94;97685.44;5009282;28;1098;-76
2023/06/09 02:31:32;;;;;;;;;;;;;;;21.93;30.41;97685.91;5005114;28;1057;-75
2023/06/09 02:33:59;;;;;;;;;;;;;;;21.98;30.15;97687.38;5021181;28;1333;-76
2023/06/09 02:36:26;;;;;;;;;;;;;;;21.99;30.21;97684.06;4966687;28;1140;-76
2023/06/09 02:38:52;;;;;;;;;;;;;;;21.76;31.02;97681.59;4982213;28;994;-76
2023/06/09 02:41:18;;;;;;;;;;;;;;;21.96;30.42;97678.50;4981522;28;1911;-76
2023/06/09 02:43:43;;;;;;;;;;;;;;;22.12;30.12;97698.22;4959426;29;1187;-76
2023/06/09 02:46:09;;;;;;;;;;;;;;;22.04;30.17;97696.88;4927626;29;1234;-76
2023/06/09 02:48:35;;;;;;;;;;;;;;;21.85;30.81;97691.00;4943202;29;1162;-75
2023/06/09 02:51:01;;;;;;;;;;;;;;;22.01;30.24;97697.78;4943742;29;1157;-77
2023/06/09 02:53:28;;;;;;;;;;;;;;;21.97;30.34;97697.13;4942945;29;973;-76
2023/06/09 02:55:55;;;;;;;;;;;;;;;21.71;30.86;97708.47;4943507;29;1093;-76
2023/06/09 02:58:24;;;;;;;;;;;;;;;22.02;30.25;97705.84;4943518;28;1383;-76
2023/06/09 03:00:51;;;;;;;;;;;;;;;21.94;30.31;97698.03;4943546;28;1976;-77
2023/06/09 03:03:18;;;;;;;;;;;;;;;22.18;30.12;97696.44;4927093;29;1139;-75
2023/06/09 03:05:45;;;;;;;;;;;;;;;22.06;30.24;97694.38;4943147;29;1418;-76
2023/06/09 03:08:12;;;;;;;;;;;;;;;22.06;30.15;97705.69;4975341;28;1206;-76
2023/06/09 03:10:40;;;;;;;;;;;;;;;22.07;30.09;97701.59;4984978;28;1448;-76
2023/06/09 03:13:07;;;;;;;;;;;;;;;22.08;30.21;97703.22;5001026;28;1222;-76
2023/06/09 03:15:36;;;;;;;;;;;;;;;21.97;30.61;97702.78;4995613;28;1096;-76
2023/06/09 03:18:02;;;;;;;;;;;;;;;21.96;30.57;97706.84;5000740;28;1358;-77
2023/06/09 03:20:28;;;;;;;;;;;;;;;22.09;30.46;97711.25;5000926;28;1910;-76
2023/06/09 03:22:54;;;;;;;;;;;;;;;22.22;30.06;97718.97;5017651;28;1005;-76
2023/06/09 03:25:21;;;;;;;;;;;;;;;22.27;30.08;97719.19;5000844;28;1092;-77
2023/06/09 03:27:48;;;;;;;;;;;;;;;22.18;30.11;97727.59;5000985;28;1307;-76
2023/06/09 03:30:15;;;;;;;;;;;;;;;21.76;30.71;97719.22;4981223;28;1524;-77
2023/06/09 03:32:44;;;;;;;;;;;;;;;21.82;30.60;97717.41;4981887;28;1227;-76
2023/06/09 03:35:10;;;;;;;;;;;;;;;22.11;30.11;97719.31;4981500;28;986;-76
2023/06/09 03:37:36;;;;;;;;;;;;;;;21.91;30.75;97715.91;4981256;28;1159;-76
2023/06/09 03:40:04;;;;;;;;;;;;;;;22.14;30.33;97724.09;4980895;28;1156;-76
2023/06/09 03:42:29;;;;;;;;;;;;;;;21.70;31.08;97712.50;4964985;28;1987;-76
2023/06/09 03:44:58;;;;;;;;;;;;;;;21.85;30.96;97719.31;4996866;28;1026;-76
2023/06/09 03:47:26;;;;;;;;;;;;;;;21.90;30.70;97714.34;4981421;28;991;-76
2023/06/09 03:49:51;;;;;;;;;;;;;;;22.10;30.58;97720.53;4980790;28;894;-76
2023/06/09 03:52:19;;;;;;;;;;;;;;;22.06;30.82;97711.38;4985117;28;1249;-75
2023/06/09 03:54:45;;;;;;;;;;;;;;;22.05;30.64;97716.25;5000394;28;1067;-76
2023/06/09 03:57:11;;;;;;;;;;;;;;;22.20;30.64;97722.25;5000807;28;971;-76
2023/06/09 03:59:36;;;;;;;;;;;;;;;22.16;30.73;97726.47;5000188;28;1131;-75
2023/06/09 04:02:02;;;;;;;;;;;;;;;22.06;30.93;97728.38;4999948;28;1906;-76
2023/06/09 04:04:28;;;;;;;;;;;;;;;22.16;30.58;97727.25;4984012;28;1241;-76
2023/06/09 04:06:56;;;;;;;;;;;;;;;22.30;30.40;97738.13;5000253;28;1218;-76
2023/06/09 04:09:22;;;;;;;;;;;;;;;22.20;30.78;97727.94;5000191;28;1317;-76
2023/06/09 04:11:47;;;;;;;;;;;;;;;22.15;30.94;97725.66;5000139;28;1128;-75
2023/06/09 04:14:13;;;;;;;;;;;;;;;22.31;30.49;97722.69;4999854;28;1117;-76
2023/06/09 04:16:38;;;;;;;;;;;;;;;22.40;30.60;97729.72;4999966;28;1218;-76
2023/06/09 04:19:04;;;;;;;;;;;;;;;22.14;30.93;97728.97;4999709;28;1254;-76
2023/06/09 04:21:32;;;;;;;;;;;;;;;22.25;31.08;97735.84;5016832;28;1914;-76
2023/06/09 04:23:58;;;;;;;;;;;;;;;22.26;30.88;97731.78;5006790;28;1439;-76
2023/06/09 04:26:25;;;;;;;;;;;;;;;22.38;30.58;97737.88;4999143;28;1227;-76
2023/06/09 04:28:53;;;;;;;;;;;;;;;22.34;30.74;97743.69;4999639;28;1221;-76
2023/06/09 04:31:23;;;;;;;;;;;;;;;22.21;31.25;97738.00;4983907;28;1314;-75
2023/06/09 04:33:53;;;;;;;;;;;;;;;22.31;31.03;97745.38;4983934;28;1264;-76
2023/06/09 04:36:20;;;;;;;;;;;;;;;22.31;30.73;97745.38;4999772;28;1103;-76
2023/06/09 04:38:47;;;;;;;;;;;;;;;22.13;31.00;97739.50;4983711;28;1161;-76
2023/06/09 04:41:12;;;;;;;;;;;;;;;22.06;31.44;97748.19;4983618;28;1964;-76
2023/06/09 04:43:41;;;;;;;;;;;;;;;22.14;31.50;97745.97;4999834;28;1060;-76
2023/06/09 04:46:09;;;;;;;;;;;;;;;22.30;31.17;97757.16;4999542;28;1211;-77
2023/06/09 04:48:35;;;;;;;;;;;;;;;22.23;31.13;97751.75;4983116;28;958;-76
2023/06/09 04:51:01;;;;;;;;;;;;;;;22.21;31.50;97755.00;4999944;28;859;-76
2023/06/09 04:53:31;;;;;;;;;;;;;;;22.31;31.12;97753.88;4984098;28;1236;-77
2023/06/09 04:55:58;;;;;;;;;;;;;;;22.33;31.34;97757.06;4983372;28;1127;-77
2023/06/09 04:58:28;;;;;;;;;;;;;;;22.29;31.37;97759.22;5014369;28;1218;-76
2023/06/09 05:00:57;;;;;;;;;;;;;;;22.29;31.44;97764.09;4999184;28;1914;-76
2023/06/09 05:03:23;;;;;;;;;;;;;;;22.28;31.30;97757.63;4998617;28;1452;-77
2023/06/09 05:05:50;;;;;;;;;;;;;;;22.07;31.57;97763.94;5015865;28;1053;-76
2023/06/09 05:08:16;;;;;;;;;;;;;;;22.15;31.64;97759.69;5015242;28;1291;-76
2023/06/09 05:10:42;;;;;;;;;;;;;;;22.11;31.88;97767.50;4982921;28;1058;-76
2023/06/09 05:13:09;;;;;;;;;;;;;;;22.29;31.41;97762.03;5015208;28;1109;-76
2023/06/09 05:15:35;;;;;;;;;;;;;;;22.20;31.65;97761.16;5015415;28;1089;-76
2023/06/09 05:18:02;;;;;;;;;;;;;;;22.04;31.70;97760.00;5014979;28;1105;-75
2023/06/09 05:20:28;;;;;;;;;;;;;;;22.28;31.56;97762.50;4999021;28;1910;-77
2023/06/09 05:22:54;;;;;;;;;;;;;;;22.36;31.38;97758.97;5014822;28;1108;-75
2023/06/09 05:25:20;;;;;;;;;;;;;;;22.17;31.61;97760.00;4978545;28;1144;-76
2023/06/09 05:27:46;;;;;;;;;;;;;;;22.16;31.72;97764.09;4995240;28;1360;-76
2023/06/09 05:30:14;;;;;;;;;;;;;;;22.15;31.37;97754.00;4995290;28;1165;-76
2023/06/09 05:32:40;;;;;;;;;;;;;;;22.35;30.97;97760.22;4995601;28;903;-75
2023/06/09 05:35:07;;;;;;;;;;;;;;;22.35;31.01;97750.94;4986016;28;1345;-76
2023/06/09 05:37:34;;;;;;;;;;;;;;;22.47;30.90;97752.16;5034842;28;1112;-76
2023/06/09 05:39:59;;;;;;;;;;;;;;;22.13;31.46;97752.91;5034780;28;1124;-76
2023/06/09 05:42:25;;;;;;;;;;;;;;;22.32;30.87;97758.28;5034206;28;1927;-76
2023/06/09 05:44:51;;;;;;;;;;;;;;;22.32;31.06;97758.28;5001441;28;1266;-76
2023/06/09 05:47:16;;;;;;;;;;;;;;;22.22;31.03;97759.44;5034691;28;814;-77
2023/06/09 05:49:42;;;;;;;;;;;;;;;22.41;31.18;97754.75;5017998;28;954;-76
2023/06/09 05:52:07;;;;;;;;;;;;;;;22.26;31.22;97765.78;5018021;28;1160;-76
2023/06/09 05:54:33;;;;;;;;;;;;;;;22.20;31.08;97761.94;5017620;28;769;-76
2023/06/09 05:56:59;;;;;;;;;;;;;;;22.31;31.26;97767.25;5018386;28;908;-77
2023/06/09 05:59:25;;;;;;;;;;;;;;;22.34;31.15;97761.47;4994164;28;1084;-78
2023/06/09 06:01:50;;;;;;;;;;;;;;;22.35;30.98;97757.38;4981398;28;1914;-77
2023/06/09 06:04:16;;;;;;;;;;;;;;;22.35;30.82;97770.78;4997730;28;1109;-76
2023/06/09 06:06:42;;;;;;;;;;;;;;;22.13;31.40;97761.41;4994384;28;1020;-76
2023/06/09 06:09:08;;;;;;;;;;;;;;;22.04;31.61;97776.19;4978778;28;1107;-76
2023/06/09 06:11:33;;;;;;;;;;;;;;;22.17;31.00;97768.50;4978862;28;1116;-76
2023/06/09 06:13:59;;;;;;;;;;;;;;;22.29;30.92;97764.88;4994678;28;1339;-77
2023/06/09 06:16:25;;;;;;;;;;;;;;;22.25;30.95;97769.88;4994660;28;906;-78
2023/06/09 06:18:50;;;;;;;;;;;;;;;21.97;31.27;97790.59;4978516;28;861;-76
2023/06/09 06:21:16;;;;;;;;;;;;;;;22.00;31.16;97779.13;4994591;28;1902;-77
2023/06/09 06:23:42;;;;;;;;;;;;;;;22.26;30.64;97779.16;4994683;28;1027;-76
2023/06/09 06:26:08;;;;;;;;;;;;;;;21.99;30.98;97771.91;4995163;28;957;-76
2023/06/09 06:28:33;;;;;;;;;;;;;;;22.08;31.05;97772.00;4994670;28;1080;-76
2023/06/09 06:30:59;;;;;;;;;;;;;;;22.19;30.71;97771.69;5021064;28;991;-76
2023/06/09 06:33:29;;;;;;;;;;;;;;;21.97;31.15;97765.91;5030676;28;996;-76
2023/06/09 06:35:56;;;;;;;;;;;;;;;22.05;30.84;97766.44;5014726;28;1217;-76
2023/06/09 06:38:21;;;;;;;;;;;;;;;22.08;30.43;97765.56;5046743;28;1000;-76
2023/06/09 06:40:48;;;;;;;;;;;;;;;22.10;30.47;97763.88;5038263;28;1897;-76
2023/06/09 06:43:14;;;;;;;;;;;;;;;22.09;30.63;97750.94;5038020;28;1000;-77
2023/06/09 06:45:57;;;;;;;;;;;;;;;22.28;30.49;97763.31;5024642;28;1181;-76
2023/06/09 06:48:23;;;;;;;;;;;;;;;22.27;29.95;97760.91;5020564;28;959;-76
2023/06/09 06:50:48;;;;;;;;;;;;;;;22.17;30.17;97762.03;5060074;28;879;-76
2023/06/09 06:53:14;;;;;;;;;;;;;;;22.42;29.76;97769.72;5059703;28;842;-76
2023/06/09 06:55:40;;;;;;;;;;;;;;;22.15;30.14;97768.19;5060137;28;942;-76
2023/06/09 06:58:05;;;;;;;;;;;;;;;22.07;30.31;97769.63;5041876;28;866;-77
2023/06/09 07:00:31;;;;;;;;;;;;;;;21.94;30.51;97768.84;5059625;28;1985;-77
2023/06/09 07:02:57;;;;;;;;;;;;;;;22.03;30.32;97755.59;5059490;28;1041;-76
2023/06/09 07:05:22;;;;;;;;;;;;;;;21.92;30.38;97760.81;5059991;28;923;-76
2023/06/09 07:07:48;;;;;;;;;;;;;;;22.19;29.87;97757.53;5041671;28;882;-76
2023/06/09 07:10:14;;;;;;;;;;;;;;;22.20;29.91;97744.94;5041485;28;981;-77
2023/06/09 07:12:41;;;;;;;;;;;;;;;22.16;29.81;97749.13;4981549;28;1210;-76
2023/06/09 07:15:07;;;;;;;;;;;;;;;22.39;29.35;97754.44;4965648;28;1560;-76
2023/06/09 07:17:33;;;;;;;;;;;;;;;22.23;29.89;97761.03;4981747;28;938;-76
2023/06/09 07:19:59;;;;;;;;;;;;;;;22.36;29.69;97756.13;4981863;28;887;-76
2023/06/09 07:22:25;;;;;;;;;;;;;;;22.11;30.07;97750.50;4981511;28;2028;-76
2023/06/09 07:24:51;;;;;;;;;;;;;;;21.85;30.33;97763.84;4997805;28;1018;-76
2023/06/09 07:27:16;;;;;;;;;;;;;;;22.11;30.00;97759.00;4981784;28;1056;-77
2023/06/09 07:29:42;;;;;;;;;;;;;;;21.91;30.32;97761.22;4997303;28;949;-76
2023/06/09 07:32:08;;;;;;;;;;;;;;;22.10;29.91;97757.38;4997698;28;953;-78
2023/06/09 07:34:35;;;;;;;;;;;;;;;22.30;29.66;97749.47;4939403;29;943;-77
2023/06/09 07:37:05;;;;;;;;;;;;;;;22.07;30.21;97747.75;4939281;29;900;-76
2023/06/09 07:39:31;;;;;;;;;;;;;;;22.13;29.80;97744.38;4939267;29;961;-76
2023/06/09 07:41:56;;;;;;;;;;;;;;;22.18;29.80;97747.44;4920664;29;2049;-76
2023/06/09 07:44:22;;;;;;;;;;;;;;;21.85;30.26;97750.47;4920620;29;1033;-77
2023/06/09 07:46:49;;;;;;;;;;;;;;;22.08;29.90;97742.88;4904526;29;1023;-76
2023/06/09 07:49:15;;;;;;;;;;;;;;;21.90;30.33;97737.00;4913778;28;1018;-76
2023/06/09 07:51:42;;;;;;;;;;;;;;;21.96;30.15;97735.97;4977735;28;978;-77
2023/06/09 07:54:08;;;;;;;;;;;;;;;22.14;29.91;97738.25;4961327;28;1236;-76
2023/06/09 07:56:33;;;;;;;;;;;;;;;22.13;29.68;97744.38;4961737;28;1297;-76
2023/06/09 07:58:59;;;;;;;;;;;;;;;22.11;30.04;97736.31;4977679;28;839;-76
2023/06/09 08:01:25;;;;;;;;;;;;;;;22.04;30.09;97730.88;4976432;28;1911;-76
2023/06/09 08:03:51;;;;;;;;;;;;;;;21.91;30.24;97738.56;4960831;28;1051;-75
2023/06/09 08:06:16;;;;;;;;;;;;;;;21.93;30.21;97736.09;4961359;28;1065;-76
2023/06/09 08:08:42;;;;;;;;;;;;;;;22.13;29.87;97738.72;4977138;28;975;-76
2023/06/09 08:11:07;;;;;;;;;;;;;;;22.04;29.76;97737.31;4977569;28;1006;-76
2023/06/09 08:13:33;;;;;;;;;;;;;;;22.06;30.11;97745.38;4977051;28;918;-76
2023/06/09 08:15:59;;;;;;;;;;;;;;;22.23;29.74;97741.19;4993610;28;972;-77
2023/06/09 08:18:24;;;;;;;;;;;;;;;22.20;29.65;97742.09;4978859;28;1241;-76
2023/06/09 08:20:50;;;;;;;;;;;;;;;22.25;29.47;97737.91;4996698;28;1981;-76
2023/06/09 08:23:16;;;;;;;;;;;;;;;22.38;29.36;97733.00;4996214;28;905;-76
2023/06/09 08:25:43;;;;;;;;;;;;;;;22.46;29.48;97739.22;4980708;28;959;-76
2023/06/09 08:28:08;;;;;;;;;;;;;;;22.21;29.90;97738.00;4980552;28;817;-76
2023/06/09 08:30:34;;;;;;;;;;;;;;;21.83;30.35;97735.97;4957725;28;1020;-76
2023/06/09 08:33:01;;;;;;;;;;;;;;;22.16;30.02;97732.91;4941742;29;1464;-76
2023/06/09 08:35:31;;;;;;;;;;;;;;;22.17;29.77;97728.84;4941963;29;1165;-76
2023/06/09 08:37:57;;;;;;;;;;;;;;;22.11;30.02;97730.66;4957930;28;813;-76
2023/06/09 08:40:23;;;;;;;;;;;;;;;21.94;30.49;97726.34;4957602;28;1044;-76
2023/06/09 08:42:48;;;;;;;;;;;;;;;22.23;29.95;97732.69;4941374;29;1981;-76
2023/06/09 08:45:14;;;;;;;;;;;;;;;22.22;29.88;97731.09;4962567;28;949;-76
2023/06/09 08:47:40;;;;;;;;;;;;;;;22.18;29.70;97736.09;4980056;28;736;-75
2023/06/09 08:50:06;;;;;;;;;;;;;;;22.08;29.95;97723.06;4979789;28;954;-76
2023/06/09 08:52:32;;;;;;;;;;;;;;;22.24;30.02;97722.94;4996111;28;875;-76
2023/06/09 08:54:58;;;;;;;;;;;;;;;22.32;29.67;97724.28;4995601;28;898;-77
2023/06/09 08:57:24;;;;;;;;;;;;;;;22.00;30.01;97718.84;4979876;28;803;-77
2023/06/09 08:59:52;;;;;;;;;;;;;;;22.17;30.05;97711.03;4979864;28;950;-76
2023/06/09 09:02:18;;;;;;;;;;;;;;;22.02;30.06;97705.00;5029566;28;1898;-76
2023/06/09 09:04:43;;;;;;;;;;;;;;;22.03;30.29;97715.13;5039771;28;1266;-77
2023/06/09 09:07:11;;;;;;;;;;;;;;;21.97;30.29;97708.44;5040029;28;923;-77
2023/06/09 09:09:37;;;;;;;;;;;;;;;22.13;29.95;97702.69;4996375;28;1214;-77
2023/06/09 09:12:03;;;;;;;;;;;;;;;22.15;30.06;97708.66;4979560;28;1292;-76
2023/06/09 09:14:28;;;;;;;;;;;;;;;22.22;29.98;97708.41;4963894;28;1022;-76
2023/06/09 09:16:54;;;;;;;;;;;;;;;22.00;30.00;97716.81;4957135;29;1015;-76
2023/06/09 09:19:29;;;;;;;;;;;;;;;21.88;30.30;97716.84;4909786;29;1102;-76
2023/06/09 09:21:55;;;;;;;;;;;;;;;21.86;30.27;97714.44;4941468;29;1907;-76
2023/06/09 09:24:21;;;;;;;;;;;;;;;22.12;29.92;97706.72;4941046;29;1010;-76
2023/06/09 09:26:46;;;;;;;;;;;;;;;22.00;30.22;97701.84;4941414;29;897;-76
2023/06/09 09:29:12;;;;;;;;;;;;;;;22.16;29.92;97703.78;4940799;29;1060;-76
2023/06/09 09:31:41;;;;;;;;;;;;;;;21.94;30.49;97706.50;4940755;29;927;-76
2023/06/09 09:34:13;;;;;;;;;;;;;;;22.10;30.07;97692.22;4956531;29;1045;-76
2023/06/09 09:36:42;;;;;;;;;;;;;;;21.83;30.45;97698.38;4956805;29;1002;-76
2023/06/09 09:39:08;;;;;;;;;;;;;;;22.26;30.02;97686.41;4925057;29;1157;-77
2023/06/09 09:41:33;;;;;;;;;;;;;;;22.02;30.00;97688.03;4962819;28;1903;-76
2023/06/09 09:43:59;;;;;;;;;;;;;;;22.10;30.04;97680.88;5014940;28;963;-77
2023/06/09 09:46:25;;;;;;;;;;;;;;;21.89;30.35;97690.09;5015456;28;912;-76
2023/06/09 09:48:50;;;;;;;;;;;;;;;22.21;29.85;97681.34;5014674;28;873;-77
2023/06/09 09:51:16;;;;;;;;;;;;;;;22.20;29.62;97679.75;4999088;28;921;-76
2023/06/09 09:53:45;;;;;;;;;;;;;;;22.21;30.03;97675.66;5008940;28;987;-76
2023/06/09 09:56:11;;;;;;;;;;;;;;;22.10;30.17;97675.22;5057046;28;1048;-76
2023/06/09 09:58:37;;;;;;;;;;;;;;;22.13;29.83;97677.19;5039434;28;884;-76
2023/06/09 10:01:03;;;;;;;;;;;;;;;22.06;30.16;97666.03;5057021;28;1898;-77
2023/06/09 10:03:29;;;;;;;;;;;;;;;22.01;30.24;97663.78;5035524;28;1280;-76
2023/06/09 10:05:55;;;;;;;;;;;;;;;22.10;30.00;97667.53;5036347;28;959;-77
2023/06/09 10:08:22;;;;;;;;;;;;;;;22.03;30.12;97669.78;5035230;28;901;-76
2023/06/09 10:10:48;;;;;;;;;;;;;;;22.00;30.26;97660.16;5036116;28;978;-77
2023/06/09 10:13:14;;;;;;;;;;;;;;;21.81;30.34;97667.69;5035624;28;1060;-75
2023/06/09 10:15:43;;;;;;;;;;;;;;;22.03;30.21;97658.47;5027830;28;1582;-76
2023/06/09 10:18:08;;;;;;;;;;;;;;;22.32;29.53;97656.25;4995970;28;903;-76
2023/06/09 10:20:35;;;;;;;;;;;;;;;22.48;29.48;97651.66;4996168;28;1020;-76
2023/06/09 10:23:00;;;;;;;;;;;;;;;22.04;30.09;97652.34;4997478;28;1914;-76
2023/06/09 10:25:26;;;;;;;;;;;;;;;22.13;29.91;97648.84;4999257;28;1119;-77
2023/06/09 10:27:52;;;;;;;;;;;;;;;22.08;30.30;97647.34;5000041;28;1020;-76
2023/06/09 10:30:17;;;;;;;;;;;;;;;22.07;30.08;97653.44;4983565;28;946;-76
2023/06/09 10:32:48;;;;;;;;;;;;;;;22.18;29.86;97644.63;5001137;28;941;-76
2023/06/09 10:35:15;;;;;;;;;;;;;;;22.32;29.55;97644.91;5000129;28;916;-76
2023/06/09 10:37:41;;;;;;;;;;;;;;;22.10;29.95;97642.03;4999798;28;947;-76
2023/06/09 10:40:18;;;;;;;;;;;;;;;21.99;30.22;97646.44;4983301;28;1062;-76
2023/06/09 10:42:50;;;;;;;;;;;;;;;22.04;30.32;97635.34;4983853;28;1993;-76
2023/06/09 10:45:17;;;;;;;;;;;;;;;22.07;29.95;97627.94;5000731;28;1065;-76
2023/06/09 10:47:45;;;;;;;;;;;;;;;22.09;30.24;97636.78;4983327;28;1261;-76
2023/06/09 10:50:27;;;;;;;;;;;;;;;22.21;29.83;97633.16;5001044;28;861;-76
2023/06/09 10:52:54;;;;;;;;;;;;;;;22.14;30.15;97630.59;4999231;28;897;-77
2023/06/09 10:55:21;;;;;;;;;;;;;;;22.31;29.69;97632.00;4999265;28;739;-77
2023/06/09 10:57:47;;;;;;;;;;;;;;;22.45;29.48;97624.25;4999359;28;795;-76
2023/06/09 11:00:13;;;;;;;;;;;;;;;22.36;29.76;97628.56;4983248;28;1126;-76
2023/06/09 11:02:39;;;;;;;;;;;;;;;22.23;29.57;97625.00;4999529;28;1963;-77
2023/06/09 11:05:05;;;;;;;;;;;;;;;22.01;29.99;97612.78;4983105;28;1092;-76
2023/06/09 11:07:33;;;;;;;;;;;;;;;22.10;30.16;97627.88;4999376;28;1124;-77
2023/06/09 11:09:58;;;;;;;;;;;;;;;22.02;30.09;97620.84;4999311;28;873;-76
2023/06/09 11:12:27;;;;;;;;;;;;;;;22.02;29.95;97620.84;5000224;28;712;-76
2023/06/09 11:14:56;;;;;;;;;;;;;;;22.19;29.74;97624.34;4982282;28;866;-77
2023/06/09 11:17:30;;;;;;;;;;;;;;;22.18;30.06;97622.75;4966934;28;1146;-77
2023/06/09 11:20:20;;;;;;;;;;;;;;;22.21;29.85;97618.97;4998755;28;852;-77
2023/06/09 11:22:48;;;;;;;;;;;;;;;22.12;30.20;97618.91;4998549;28;1914;-77
2023/06/09 11:25:17;;;;;;;;;;;;;;;22.17;30.11;97621.16;4999676;28;834;-76
2023/06/09 11:27:43;;;;;;;;;;;;;;;22.19;29.86;97618.66;4998140;28;983;-76
2023/06/09 11:30:11;;;;;;;;;;;;;;;22.22;29.84;97623.41;4967296;28;1117;-76
2023/06/09 11:32:44;;;;;;;;;;;;;;;22.00;30.20;97616.88;4992460;28;1259;-76
2023/06/09 11:35:10;;;;;;;;;;;;;;;22.30;29.75;97607.75;4990721;28;1259;-78
2023/06/09 11:37:36;;;;;;;;;;;;;;;22.06;29.90;97598.81;4988809;28;1384;-77
2023/06/09 11:40:04;;;;;;;;;;;;;;;22.11;30.13;97594.66;4987624;28;1238;-76
2023/06/09 11:42:31;;;;;;;;;;;;;;;22.21;30.02;97599.16;4971508;28;1984;-76
2023/06/09 11:44:58;;;;;;;;;;;;;;;22.09;30.14;97597.13;4970036;28;1243;-76
2023/06/09 11:47:27;;;;;;;;;;;;;;;22.22;29.75;97612.06;4986947;28;1231;-76
2023/06/09 11:50:19;;;;;;;;;;;;;;;22.44;29.42;97602.81;4947375;29;1291;-77
2023/06/09 11:52:45;;;;;;;;;;;;;;;22.35;29.86;97601.47;4882138;29;1198;-76
2023/06/09 11:55:12;;;;;;;;;;;;;;;22.30;29.74;97604.91;4851455;29;1278;-78
2023/06/09 11:57:38;;;;;;;;;;;;;;;22.03;30.53;97593.31;4868968;29;922;-76
2023/06/09 12:00:12;;;;;;;;;;;;;;;22.12;29.90;97603.94;4901551;29;932;-77
2023/06/09 12:02:41;;;;;;;;;;;;;;;22.21;29.96;97604.81;4882135;29;1911;-77
2023/06/09 12:05:10;;;;;;;;;;;;;;;21.93;30.27;97600.13;4867014;29;925;-76
2023/06/09 12:07:36;;;;;;;;;;;;;;;22.03;30.39;97594.09;4882881;29;989;-75
2023/06/09 12:10:02;;;;;;;;;;;;;;;22.06;30.28;97595.19;4866983;29;942;-76
2023/06/09 12:12:27;;;;;;;;;;;;;;;22.24;30.02;97592.56;4882768;29;1012;-76
2023/06/09 12:14:53;;;;;;;;;;;;;;;22.17;30.31;97587.16;4875235;29;1025;-76
2023/06/09 12:17:18;;;;;;;;;;;;;;;22.20;30.22;97591.91;4885890;29;947;-77
2023/06/09 12:19:46;;;;;;;;;;;;;;;22.30;29.75;97585.06;4886085;29;1091;-77
2023/06/09 12:22:12;;;;;;;;;;;;;;;21.91;30.59;97586.41;4920016;29;1907;-77
2023/06/09 12:24:38;;;;;;;;;;;;;;;22.08;30.38;97585.00;4919797;29;1092;-76
2023/06/09 12:27:11;;;;;;;;;;;;;;;22.00;30.50;97589.31;4920101;29;927;-77
2023/06/09 12:29:37;;;;;;;;;;;;;;;22.22;30.08;97588.59;4950609;28;1023;-76
2023/06/09 12:32:04;;;;;;;;;;;;;;;22.25;30.04;97582.81;4977527;28;936;-76
2023/06/09 12:34:30;;;;;;;;;;;;;;;22.06;30.12;97586.69;4993966;28;1037;-76
2023/06/09 12:36:56;;;;;;;;;;;;;;;22.15;30.28;97589.66;4980822;28;1037;-76
2023/06/09 12:39:22;;;;;;;;;;;;;;;22.27;30.14;97580.31;4997424;28;941;-76
2023/06/09 12:41:48;;;;;;;;;;;;;;;22.29;30.17;97577.81;4997740;28;1902;-76
2023/06/09 12:44:20;;;;;;;;;;;;;;;22.49;29.81;97579.56;4998605;28;1030;-76
2023/06/09 12:46:47;;;;;;;;;;;;;;;22.18;30.16;97577.41;4997437;28;907;-76
2023/06/09 12:49:13;;;;;;;;;;;;;;;22.20;30.14;97577.72;4997562;28;922;-76
2023/06/09 12:51:43;;;;;;;;;;;;;;;22.22;30.30;97583.72;4997806;28;812;-76
2023/06/09 12:54:12;;;;;;;;;;;;;;;22.10;30.29;97576.03;4997661;28;1012;-77
2023/06/09 12:56:38;;;;;;;;;;;;;;;21.96;30.30;97570.88;4977115;28;952;-77
2023/06/09 12:59:03;;;;;;;;;;;;;;;22.13;30.02;97572.34;4976697;28;1002;-76